Monroe County Airport Bloomington US
ICAO: KBMG
IATA: BMG
Category: Medium
Scheduled Services: No

Elevation: 846 ft
TransAlt. 18000 ft.

Airport Communications:
HULMAN APP/DEP:128.05
ASOS:110.2
CTAF:120.775
GND:121.9
TERRE HAUTE RDO:110.2
BLOOMINGTON TWR:120.775
UNICOM:122.95

KBMG Zoom In..

If you have problems with the map follow the link
https://www.worldairports.se/pages/airport.php?
ICAO=KBMG

Runways:

(A) RW 06 length 3798 ft width 100 ft
---- / hdg 64

(B) RW 17 length 6500 ft width 150 ft
---- / hdg 174

(C) RW 24 length 3798 ft width 100 ft
---- / hdg 244

(D) RW 35 length 6500 ft width 150 ft
ILS 108.30 / hdg 354

Location; KBMG
Day. 19 / Time. 19.53 Zulu
* Altimeter: 30.35
* Temperature: -11° c. -12.2°f.
* Wind from: 300° Speed 10 kn with Gusts up to 16 kn.
Dewpoint: -15° c.
Visibility: 9 Statute Miles.
Clouds: Overcast 2000 ft.
Conditions: Light Snow.

KBMG 191953Z 30010G16KT 9SM -SN OVC020 M11/M15 A3035 RMK AO2 SNB53 SLP289 P0000 T11061150


Wind From 300°
Speed 10 kn.

 
 
jpsmedia worldairports.se 2020   terms of use